Time;durP1;ratioP1;P1;durP2;ratioP2;P2;SDS_P1;SDS_P2;PMS_P1;PMS_P2;Temp;Humidity;BMP_temperature;BMP_pressure;BME280_temperature;BME280_humidity;BME280_pressure;Samples;Min_cycle;Max_cycle;Signal;HPM_P1;HPM_P2
2023/09/07 00:01:32;;;;;;;2.30;2.10;;;16.00;99.90;;;;;;5067059;28;20549;-77
2023/09/07 00:03:59;;;;;;;2.20;2.10;;;16.00;99.90;;;;;;5068884;28;20479;-75
2023/09/07 00:06:26;;;;;;;2.27;1.90;;;15.90;99.90;;;;;;5064560;28;20462;-73
2023/09/07 00:08:53;;;;;;;3.23;2.93;;;15.90;99.90;;;;;;5068705;28;20500;-76
2023/09/07 00:11:20;;;;;;;3.07;2.43;;;15.90;99.90;;;;;;5068461;28;20580;-73
2023/09/07 00:13:50;;;;;;;2.53;2.13;;;15.80;99.90;;;;;;5066933;28;21191;-73
2023/09/07 00:16:17;;;;;;;3.30;2.63;;;15.80;99.90;;;;;;5069092;28;20494;-73
2023/09/07 00:18:44;;;;;;;3.60;2.97;;;15.80;99.90;;;;;;5068267;28;20513;-76
2023/09/07 00:21:11;;;;;;;2.20;2.03;;;15.80;99.90;;;;;;5069946;28;20532;-73
2023/09/07 00:23:38;;;;;;;3.37;3.17;;;15.70;99.90;;;;;;5069026;28;21002;-73
2023/09/07 00:26:05;;;;;;;2.67;2.30;;;15.70;99.90;;;;;;5070061;28;20508;-74
2023/09/07 00:28:32;;;;;;;2.57;2.47;;;15.70;99.90;;;;;;5068679;28;20455;-73
2023/09/07 00:31:00;;;;;;;5.73;2.97;;;15.70;99.90;;;;;;5068725;28;20478;-73
2023/09/07 00:33:27;;;;;;;3.20;2.90;;;15.70;99.90;;;;;;5057838;28;21008;-74
2023/09/07 00:35:54;;;;;;;2.60;2.40;;;15.70;99.90;;;;;;5069368;28;20528;-73
2023/09/07 00:38:21;;;;;;;3.30;3.00;;;15.70;99.90;;;;;;5067920;28;21127;-73
2023/09/07 00:40:48;;;;;;;4.20;3.90;;;15.80;99.90;;;;;;5068348;28;20520;-75
2023/09/07 00:43:14;;;;;;;3.80;2.97;;;15.70;99.90;;;;;;5063250;28;20462;-73
2023/09/07 00:45:42;;;;;;;3.47;3.17;;;15.60;99.90;;;;;;5068528;28;20515;-72
2023/09/07 00:48:13;;;;;;;3.40;3.10;;;15.60;99.90;;;;;;5067624;28;20468;-73
2023/09/07 00:50:40;;;;;;;4.10;2.90;;;15.70;99.90;;;;;;5062849;28;20627;-73
2023/09/07 00:53:08;;;;;;;2.50;2.30;;;15.60;99.90;;;;;;5069100;28;20516;-76
2023/09/07 00:55:35;;;;;;;3.03;2.77;;;15.50;99.90;;;;;;5065201;28;20531;-72
2023/09/07 00:58:03;;;;;;;3.00;2.30;;;15.50;99.90;;;;;;5067221;28;20461;-73
2023/09/07 01:00:30;;;;;;;3.83;3.43;;;15.50;99.90;;;;;;5069616;28;20478;-74
2023/09/07 01:02:57;;;;;;;4.20;3.33;;;15.50;99.90;;;;;;5053790;28;20504;-73
2023/09/07 01:05:32;;;;;;;2.30;2.20;;;15.50;99.90;;;;;;5064476;28;20948;-73
2023/09/07 01:08:08;;;;;;;3.73;2.90;;;15.50;99.90;;;;;;5068423;28;20575;-73
2023/09/07 01:10:35;;;;;;;2.70;2.50;;;15.40;99.90;;;;;;5068853;28;20535;-73
2023/09/07 01:13:02;;;;;;;3.40;2.70;;;15.40;99.90;;;;;;5068394;28;20447;-76
2023/09/07 01:15:30;;;;;;;3.23;2.87;;;15.40;99.90;;;;;;5070001;28;20575;-73
2023/09/07 01:17:59;;;;;;;3.80;3.23;;;15.40;99.90;;;;;;5066838;28;20544;-73
2023/09/07 01:20:28;;;;;;;2.63;2.43;;;15.30;99.90;;;;;;5060322;28;20448;-75
2023/09/07 01:22:56;;;;;;;2.83;2.63;;;15.30;99.90;;;;;;5068485;28;20478;-73
2023/09/07 01:25:24;;;;;;;4.83;3.00;;;15.20;99.90;;;;;;5069134;28;20439;-74
2023/09/07 01:27:53;;;;;;;3.03;2.73;;;15.30;99.90;;;;;;5068359;28;20454;-77
2023/09/07 01:30:21;;;;;;;2.77;2.57;;;15.30;99.90;;;;;;5067472;28;20909;-74
2023/09/07 01:32:49;;;;;;;2.90;2.70;;;15.20;99.90;;;;;;5068112;28;20453;-73
2023/09/07 01:35:21;;;;;;;2.90;2.70;;;15.10;99.90;;;;;;5068243;28;20458;-73
2023/09/07 01:37:48;;;;;;;2.80;2.60;;;15.20;99.90;;;;;;5063241;28;21182;-73
2023/09/07 01:40:17;;;;;;;3.80;3.50;;;15.20;99.90;;;;;;5066228;28;21038;-77
2023/09/07 01:42:44;;;;;;;2.83;2.60;;;15.10;99.90;;;;;;5056685;28;21154;-73
2023/09/07 01:45:11;;;;;;;2.70;2.10;;;15.10;99.90;;;;;;5064834;28;20889;-75
2023/09/07 01:47:38;;;;;;;2.83;2.53;;;15.10;99.90;;;;;;5061700;28;20470;-73
2023/09/07 01:50:06;;;;;;;3.30;2.00;;;15.00;99.90;;;;;;5054779;28;20512;-73
2023/09/07 01:52:33;;;;;;;2.83;2.50;;;15.00;99.90;;;;;;5061049;28;20470;-75
2023/09/07 01:55:00;;;;;;;3.77;3.47;;;15.00;99.90;;;;;;5065732;28;20798;-73
2023/09/07 01:57:29;;;;;;;3.17;2.97;;;15.00;99.90;;;;;;5060115;28;20486;-74
2023/09/07 01:59:56;;;;;;;3.63;3.00;;;14.90;99.90;;;;;;5067298;28;20494;-74
2023/09/07 02:02:23;;;;;;;5.13;2.77;;;14.90;99.90;;;;;;5065812;28;20529;-73
2023/09/07 02:04:50;;;;;;;3.53;2.87;;;14.90;99.90;;;;;;5066412;28;20455;-75
2023/09/07 02:07:17;;;;;;;3.07;2.40;;;14.90;99.90;;;;;;5063737;28;20455;-73
2023/09/07 02:09:44;;;;;;;4.60;3.23;;;14.90;99.90;;;;;;5062546;28;20915;-76
2023/09/07 02:12:11;;;;;;;2.90;2.70;;;14.90;99.90;;;;;;5055078;28;20498;-73
2023/09/07 02:14:39;;;;;;;4.47;2.43;;;14.90;99.90;;;;;;5067817;28;20461;-73
2023/09/07 02:17:08;;;;;;;2.97;2.40;;;14.90;99.90;;;;;;5066505;28;20488;-73
2023/09/07 02:19:35;;;;;;;5.23;2.97;;;14.90;99.90;;;;;;5066171;28;21034;-75
2023/09/07 02:22:02;;;;;;;2.90;2.57;;;14.90;99.90;;;;;;5067147;28;20529;-75
2023/09/07 02:24:29;;;;;;;3.27;3.00;;;15.10;99.90;;;;;;5066483;28;20474;-73
2023/09/07 02:26:56;;;;;;;5.10;2.93;;;15.10;99.90;;;;;;5066182;28;20542;-73
2023/09/07 02:29:23;;;;;;;3.03;2.77;;;15.10;99.90;;;;;;5066867;28;20451;-74
2023/09/07 02:31:52;;;;;;;2.73;2.53;;;15.10;99.90;;;;;;5064633;28;20960;-73
2023/09/07 02:34:19;;;;;;;2.93;2.40;;;15.20;99.90;;;;;;5067283;28;20540;-73
2023/09/07 02:36:46;;;;;;;2.60;2.40;;;15.20;99.90;;;;;;5062572;28;21087;-75
2023/09/07 02:39:13;;;;;;;8.80;2.87;;;15.10;99.90;;;;;;5059689;28;20508;-73
2023/09/07 02:41:40;;;;;;;2.70;2.50;;;15.10;99.90;;;;;;5068772;28;20529;-72
2023/09/07 02:44:07;;;;;;;2.37;2.20;;;15.00;99.90;;;;;;5058356;28;20884;-75
2023/09/07 02:46:34;;;;;;;3.63;2.67;;;15.00;99.90;;;;;;5065077;28;21159;-77
2023/09/07 02:49:03;;;;;;;3.70;3.33;;;15.10;99.90;;;;;;5064771;28;20475;-73
2023/09/07 02:51:29;;;;;;;2.40;2.27;;;15.00;99.90;;;;;;5061724;28;20466;-74
2023/09/07 02:53:57;;;;;;;4.10;3.80;;;15.00;99.90;;;;;;5066493;28;20450;-74
2023/09/07 02:56:25;;;;;;;3.93;3.57;;;15.00;99.90;;;;;;5066269;28;20566;-75
2023/09/07 02:58:51;;;;;;;3.30;3.10;;;14.90;99.90;;;;;;5059949;28;20466;-73
2023/09/07 03:01:20;;;;;;;4.07;2.80;;;14.80;99.90;;;;;;5066199;28;21023;-73
2023/09/07 03:03:48;;;;;;;2.77;2.57;;;14.80;99.90;;;;;;5063288;28;20477;-75
2023/09/07 03:06:17;;;;;;;3.43;3.13;;;14.70;99.90;;;;;;5059243;28;21313;-73
2023/09/07 03:08:44;;;;;;;2.73;2.30;;;14.70;99.90;;;;;;5066007;28;20983;-73
2023/09/07 03:11:11;;;;;;;3.80;3.50;;;14.70;99.90;;;;;;5052962;28;21017;-73
2023/09/07 03:13:39;;;;;;;5.47;2.83;;;14.70;99.90;;;;;;5061797;28;21130;-74
2023/09/07 03:16:06;;;;;;;7.67;2.67;;;14.50;99.90;;;;;;5065945;28;20450;-73
2023/09/07 03:18:33;;;;;;;3.77;3.47;;;14.40;99.90;;;;;;5066215;28;20449;-74
2023/09/07 03:21:02;;;;;;;3.93;3.30;;;14.40;99.90;;;;;;5066359;28;20499;-73
2023/09/07 03:23:31;;;;;;;4.50;2.90;;;14.40;99.90;;;;;;5068704;28;20478;-74
2023/09/07 03:25:58;;;;;;;5.20;4.70;;;14.40;99.90;;;;;;5064035;28;20991;-76
2023/09/07 03:28:26;;;;;;;3.97;3.67;;;14.40;99.90;;;;;;5065385;28;20866;-76
2023/09/07 03:30:53;;;;;;;3.50;3.20;;;14.40;99.90;;;;;;5066184;28;20498;-74
2023/09/07 03:33:20;;;;;;;4.20;3.90;;;14.30;99.90;;;;;;5065709;28;20535;-74
2023/09/07 03:35:47;;;;;;;3.50;3.13;;;14.30;99.90;;;;;;5066431;28;20449;-73
2023/09/07 03:38:14;;;;;;;5.23;3.50;;;14.20;99.90;;;;;;5064959;28;20556;-73
2023/09/07 03:40:43;;;;;;;4.07;3.77;;;14.10;99.90;;;;;;5064463;28;20569;-74
2023/09/07 03:43:10;;;;;;;3.77;2.80;;;14.20;99.90;;;;;;5061702;28;20848;-72
2023/09/07 03:45:37;;;;;;;4.27;3.60;;;14.10;99.90;;;;;;5058066;28;21061;-75
2023/09/07 03:48:05;;;;;;;4.63;3.27;;;14.20;99.90;;;;;;5054419;28;20477;-74
2023/09/07 03:50:32;;;;;;;4.90;3.70;;;14.10;99.90;;;;;;5061430;28;20537;-75
2023/09/07 03:52:59;;;;;;;5.03;3.60;;;14.10;99.90;;;;;;5055573;28;21179;-75
2023/09/07 03:55:26;;;;;;;4.27;3.50;;;14.10;99.90;;;;;;5061091;28;20463;-75
2023/09/07 03:57:54;;;;;;;3.60;3.30;;;14.10;99.90;;;;;;5057359;28;21175;-74
2023/09/07 04:00:21;;;;;;;3.90;3.60;;;14.10;99.90;;;;;;5062624;28;21249;-73
2023/09/07 04:02:48;;;;;;;3.57;3.03;;;14.20;99.90;;;;;;5069120;28;20488;-71
2023/09/07 04:05:15;;;;;;;5.60;3.83;;;14.30;99.90;;;;;;5065329;28;20549;-76
2023/09/07 04:07:42;;;;;;;3.93;3.73;;;14.30;99.90;;;;;;5061967;28;20988;-73
2023/09/07 04:10:09;;;;;;;3.50;3.27;;;14.20;99.90;;;;;;5056734;28;20468;-75
2023/09/07 04:12:36;;;;;;;5.50;2.93;;;14.20;99.90;;;;;;5057073;28;20464;-75
2023/09/07 04:15:05;;;;;;;4.10;3.17;;;14.20;99.90;;;;;;5056671;28;20524;-73
2023/09/07 04:17:39;;;;;;;4.03;3.63;;;14.20;99.90;;;;;;5060588;28;20647;-74
2023/09/07 04:20:08;;;;;;;4.70;3.40;;;14.20;99.90;;;;;;5059478;28;20471;-74
2023/09/07 04:22:35;;;;;;;4.90;4.40;;;14.20;99.90;;;;;;5054040;28;20593;-76
2023/09/07 04:25:02;;;;;;;5.60;3.07;;;14.20;99.90;;;;;;5060402;28;20605;-76
2023/09/07 04:27:29;;;;;;;3.67;3.37;;;14.20;99.90;;;;;;5058749;28;20523;-73
2023/09/07 04:29:56;;;;;;;3.40;3.20;;;14.20;99.90;;;;;;5063582;28;20443;-73
2023/09/07 04:32:24;;;;;;;3.90;3.50;;;14.10;99.90;;;;;;5064616;28;20450;-73
2023/09/07 04:34:55;;;;;;;5.50;3.90;;;14.00;99.90;;;;;;5060819;28;20468;-75
2023/09/07 04:37:22;;;;;;;3.90;3.60;;;14.10;99.90;;;;;;5063918;28;20503;-74
2023/09/07 04:39:53;;;;;;;4.70;2.70;;;14.10;99.90;;;;;;5063130;28;20946;-73
2023/09/07 04:42:20;;;;;;;3.87;3.57;;;14.20;99.90;;;;;;5065193;28;20893;-73
2023/09/07 04:44:48;;;;;;;4.47;4.07;;;14.20;99.90;;;;;;5062388;28;20463;-73
2023/09/07 04:47:15;;;;;;;3.53;3.00;;;14.20;99.90;;;;;;5066751;28;20554;-78
2023/09/07 04:49:43;;;;;;;13.43;3.87;;;14.20;99.90;;;;;;5071106;28;20680;-73
2023/09/07 04:52:10;;;;;;;4.67;3.33;;;14.10;99.90;;;;;;5070699;28;20542;-72
2023/09/07 04:54:37;;;;;;;4.47;3.77;;;14.00;99.90;;;;;;5061350;28;20471;-76
2023/09/07 04:57:04;;;;;;;3.70;3.40;;;14.10;99.90;;;;;;5061372;28;20498;-76
2023/09/07 04:59:31;;;;;;;4.50;4.10;;;14.20;99.90;;;;;;5067496;28;20535;-73
2023/09/07 05:02:01;;;;;;;3.40;3.20;;;14.20;99.90;;;;;;5068720;28;20537;-74
2023/09/07 05:04:28;;;;;;;3.90;3.50;;;14.30;99.90;;;;;;5067190;28;20515;-73
2023/09/07 05:06:57;;;;;;;4.50;4.10;;;14.30;99.90;;;;;;5064971;28;20503;-74
2023/09/07 05:09:25;;;;;;;4.00;3.47;;;14.40;99.90;;;;;;5061863;28;20508;-73
2023/09/07 05:11:52;;;;;;;3.87;2.87;;;14.40;99.90;;;;;;5067476;28;20543;-73
2023/09/07 05:14:19;;;;;;;6.37;3.50;;;14.40;99.90;;;;;;5063434;28;20447;-73
2023/09/07 05:16:46;;;;;;;3.37;3.07;;;14.50;99.90;;;;;;5058186;28;20812;-76
2023/09/07 05:19:13;;;;;;;3.20;3.00;;;14.50;99.90;;;;;;5060781;28;20440;-74
2023/09/07 05:21:39;;;;;;;3.87;3.57;;;14.60;99.90;;;;;;5062277;28;21184;-73
2023/09/07 05:24:08;;;;;;;4.50;3.50;;;14.60;99.90;;;;;;5060350;28;20435;-73
2023/09/07 05:26:35;;;;;;;4.40;2.90;;;14.60;99.90;;;;;;5060171;28;20456;-76
2023/09/07 05:29:02;;;;;;;3.90;3.37;;;14.70;99.90;;;;;;5060994;28;20566;-73
2023/09/07 05:31:29;;;;;;;3.70;3.13;;;14.70;99.90;;;;;;5061011;28;21244;-73
2023/09/07 05:33:56;;;;;;;3.60;2.90;;;14.80;99.90;;;;;;5059043;28;20449;-78
2023/09/07 05:36:23;;;;;;;3.70;3.40;;;14.90;99.90;;;;;;5056251;28;22055;-74
2023/09/07 05:38:50;;;;;;;3.50;3.20;;;15.00;99.90;;;;;;5054906;28;20515;-77
2023/09/07 05:41:18;;;;;;;5.07;3.03;;;15.10;99.90;;;;;;5059986;28;20936;-75
2023/09/07 05:43:46;;;;;;;3.87;3.57;;;15.20;99.90;;;;;;5058537;28;20536;-77
2023/09/07 05:46:13;;;;;;;4.60;3.47;;;15.20;99.90;;;;;;5061243;28;20447;-74
2023/09/07 05:48:40;;;;;;;6.23;3.70;;;15.30;99.90;;;;;;5057294;28;20960;-73
2023/09/07 05:51:07;;;;;;;4.30;3.90;;;15.50;99.90;;;;;;5060751;28;20476;-75
2023/09/07 05:53:34;;;;;;;3.40;3.10;;;15.60;99.90;;;;;;5058520;28;21041;-77
2023/09/07 05:56:01;;;;;;;2.83;2.60;;;15.70;99.90;;;;;;5061764;28;20536;-75
2023/09/07 05:58:29;;;;;;;4.40;3.50;;;15.70;99.90;;;;;;5055442;28;20541;-76
2023/09/07 06:00:56;;;;;;;6.90;2.70;;;15.80;99.90;;;;;;5067461;28;20600;-77
2023/09/07 06:03:24;;;;;;;3.90;3.50;;;15.90;99.90;;;;;;5067247;28;20479;-75
2023/09/07 06:05:51;;;;;;;5.17;4.20;;;16.00;99.90;;;;;;5060746;28;20539;-79
2023/09/07 06:08:18;;;;;;;4.50;2.70;;;16.00;99.90;;;;;;5066676;28;20528;-75
2023/09/07 06:10:45;;;;;;;3.20;2.77;;;16.10;99.90;;;;;;5066803;28;20444;-74
2023/09/07 06:13:12;;;;;;;3.53;3.23;;;16.10;99.90;;;;;;5064631;28;20535;-76
2023/09/07 06:15:40;;;;;;;3.00;2.80;;;16.20;99.90;;;;;;5056155;28;20443;-75
2023/09/07 06:18:07;;;;;;;2.83;2.63;;;16.30;99.90;;;;;;5064540;28;20519;-75
2023/09/07 06:20:35;;;;;;;3.97;3.60;;;16.40;99.90;;;;;;5070928;28;20469;-74
2023/09/07 06:23:02;;;;;;;3.67;3.13;;;16.40;99.90;;;;;;5066664;28;20460;-75
2023/09/07 06:25:29;;;;;;;4.23;3.70;;;16.40;99.90;;;;;;5065594;28;20443;-77
2023/09/07 06:27:56;;;;;;;4.13;3.83;;;16.50;99.90;;;;;;5064517;28;20467;-74
2023/09/07 06:30:23;;;;;;;5.43;2.80;;;16.60;99.90;;;;;;5064735;28;21023;-74
2023/09/07 06:32:52;;;;;;;3.67;3.43;;;16.70;99.90;;;;;;5058576;28;20463;-76
2023/09/07 06:35:19;;;;;;;3.87;3.00;;;16.80;99.90;;;;;;5053643;28;20946;-74
2023/09/07 06:37:46;;;;;;;2.53;1.93;;;16.90;99.90;;;;;;5061157;28;20584;-74
2023/09/07 06:40:15;;;;;;;5.23;2.80;;;17.10;99.90;;;;;;5063087;28;20491;-77
2023/09/07 06:42:42;;;;;;;4.07;3.00;;;17.20;99.90;;;;;;5064420;28;20527;-76
2023/09/07 06:45:10;;;;;;;4.07;3.20;;;17.40;99.90;;;;;;5060128;28;20484;-74
2023/09/07 06:47:37;;;;;;;2.40;2.30;;;17.40;99.90;;;;;;5067235;28;20535;-75
2023/09/07 06:50:06;;;;;;;2.07;1.83;;;17.50;99.90;;;;;;5063088;28;20501;-75
2023/09/07 06:52:33;;;;;;;2.70;1.63;;;17.60;99.90;;;;;;5062476;28;21012;-75
2023/09/07 06:55:00;;;;;;;1.93;1.83;;;17.70;99.90;;;;;;5059347;28;21397;-75
2023/09/07 06:57:27;;;;;;;3.07;2.40;;;17.80;99.90;;;;;;5062493;28;20483;-74
2023/09/07 06:59:54;;;;;;;1.77;1.67;;;17.90;99.90;;;;;;5066218;28;21197;-76
2023/09/07 07:02:21;;;;;;;2.73;2.03;;;18.00;99.90;;;;;;5066963;28;20440;-74
2023/09/07 07:04:48;;;;;;;5.70;2.33;;;18.00;99.90;;;;;;5065711;28;20530;-74
2023/09/07 07:07:16;;;;;;;5.60;3.03;;;18.10;99.90;;;;;;5064676;28;20444;-78
2023/09/07 07:09:43;;;;;;;3.70;2.63;;;18.10;99.90;;;;;;5065572;28;20513;-75
2023/09/07 07:12:10;;;;;;;2.37;2.20;;;18.10;99.90;;;;;;5056621;28;20558;-74
2023/09/07 07:14:37;;;;;;;2.50;2.30;;;18.30;99.90;;;;;;5066363;28;20502;-74
2023/09/07 07:17:04;;;;;;;3.00;1.50;;;18.40;99.90;;;;;;5066205;28;20443;-76
2023/09/07 07:19:32;;;;;;;2.10;2.00;;;18.50;99.90;;;;;;5062783;28;20469;-75
2023/09/07 07:21:58;;;;;;;3.47;2.30;;;18.60;99.90;;;;;;5061739;28;20489;-74
2023/09/07 07:24:27;;;;;;;5.77;2.40;;;18.80;99.90;;;;;;5064549;28;20479;-76
2023/09/07 07:26:54;;;;;;;9.33;3.03;;;18.80;99.90;;;;;;5057885;28;20483;-75
2023/09/07 07:29:21;;;;;;;3.00;1.87;;;18.90;99.90;;;;;;5060271;28;20444;-75
2023/09/07 07:31:48;;;;;;;2.50;2.30;;;19.00;99.90;;;;;;5065144;28;20503;-75
2023/09/07 07:34:15;;;;;;;6.43;3.33;;;18.90;99.90;;;;;;5065868;28;20479;-74
2023/09/07 07:36:42;;;;;;;7.07;2.30;;;19.20;99.90;;;;;;5059869;28;20496;-74
2023/09/07 07:39:09;;;;;;;1.93;1.80;;;19.20;99.90;;;;;;5057751;28;20592;-75
2023/09/07 07:41:38;;;;;;;1.90;1.80;;;19.40;99.90;;;;;;5065475;28;20435;-73
2023/09/07 07:44:05;;;;;;;4.90;3.40;;;19.40;99.90;;;;;;5066220;28;20455;-77
2023/09/07 07:46:32;;;;;;;7.03;2.17;;;19.40;99.90;;;;;;5064629;28;20468;-74
2023/09/07 07:48:59;;;;;;;4.07;1.90;;;19.60;99.90;;;;;;5067544;28;21019;-74
2023/09/07 07:51:26;;;;;;;1.90;1.80;;;19.70;99.90;;;;;;5067534;28;20528;-74
2023/09/07 07:53:56;;;;;;;6.57;2.10;;;19.90;99.90;;;;;;5063418;28;20853;-74
2023/09/07 07:56:24;;;;;;;2.83;2.27;;;20.00;99.90;;;;;;5063158;28;20446;-75
2023/09/07 07:58:52;;;;;;;4.23;1.80;;;19.90;99.90;;;;;;5058438;28;20487;-73
2023/09/07 08:01:21;;;;;;;8.53;2.10;;;20.00;99.90;;;;;;5068734;28;20468;-74
2023/09/07 08:03:48;;;;;;;2.90;1.83;;;20.20;99.90;;;;;;5066639;28;20456;-76
2023/09/07 08:06:15;;;;;;;1.73;1.63;;;20.40;99.90;;;;;;5064774;28;20473;-75
2023/09/07 08:08:42;;;;;;;5.03;1.80;;;20.60;99.90;;;;;;5065873;28;20455;-75
2023/09/07 08:11:09;;;;;;;8.80;1.67;;;20.80;99.90;;;;;;5065017;28;20652;-74
2023/09/07 08:13:36;;;;;;;1.93;1.83;;;20.90;99.90;;;;;;5066489;28;20538;-74
2023/09/07 08:16:05;;;;;;;5.67;1.83;;;20.70;99.90;;;;;;5066565;28;21047;-74
2023/09/07 08:18:34;;;;;;;7.13;2.10;;;20.80;99.90;;;;;;5067137;28;20527;-75
2023/09/07 08:21:04;;;;;;;2.80;2.23;;;20.70;99.90;;;;;;5061062;28;20467;-76
2023/09/07 08:23:31;;;;;;;2.40;1.50;;;20.90;99.90;;;;;;5053215;28;20470;-74
2023/09/07 08:25:59;;;;;;;2.00;1.87;;;20.80;99.90;;;;;;5061105;28;20505;-78
2023/09/07 08:28:28;;;;;;;2.40;2.23;;;20.90;99.90;;;;;;5065258;28;20446;-75
2023/09/07 08:30:58;;;;;;;2.20;2.03;;;21.00;99.90;;;;;;5060056;28;20450;-74
2023/09/07 08:33:28;;;;;;;3.93;1.43;;;21.20;99.90;;;;;;5066751;28;20566;-74
2023/09/07 08:35:56;;;;;;;4.53;2.50;;;21.10;99.90;;;;;;5067085;28;20448;-76
2023/09/07 08:38:27;;;;;;;3.43;1.50;;;21.30;99.90;;;;;;5063251;28;20553;-76
2023/09/07 08:40:55;;;;;;;2.10;1.40;;;21.70;99.90;;;;;;5066198;28;20443;-74
2023/09/07 08:43:23;;;;;;;2.67;1.37;;;21.70;99.90;;;;;;5064799;28;22386;-74
2023/09/07 08:45:59;;;;;;;1.97;1.83;;;21.60;99.90;;;;;;5064225;28;20858;-75
2023/09/07 08:48:30;;;;;;;1.40;1.17;;;21.50;99.90;;;;;;5065569;28;20463;-74
2023/09/07 08:50:57;;;;;;;1.93;1.83;;;21.60;99.90;;;;;;5067716;28;20473;-76
2023/09/07 08:53:25;;;;;;;2.43;1.90;;;21.60;99.90;;;;;;5065228;28;20459;-74
2023/09/07 08:55:52;;;;;;;2.60;2.40;;;21.70;99.90;;;;;;5060287;28;20443;-74
2023/09/07 08:58:20;;;;;;;1.83;1.73;;;21.80;99.90;;;;;;5062705;28;20531;-77
2023/09/07 09:00:47;;;;;;;2.90;1.60;;;22.10;99.90;;;;;;5067071;28;21119;-76
2023/09/07 09:03:14;;;;;;;2.50;2.10;;;22.10;99.90;;;;;;5066742;28;20509;-75
2023/09/07 09:05:43;;;;;;;2.47;2.27;;;22.00;99.90;;;;;;5064135;28;20492;-74
2023/09/07 09:08:10;;;;;;;4.13;2.03;;;21.90;99.10;;;;;;5059475;28;20578;-75
2023/09/07 09:10:39;;;;;;;1.90;1.37;;;22.10;99.90;;;;;;5058760;28;20447;-74
2023/09/07 09:13:06;;;;;;;2.43;1.47;;;22.20;99.70;;;;;;5057508;28;20987;-74
2023/09/07 09:15:33;;;;;;;3.83;2.70;;;22.20;99.90;;;;;;5064613;28;20463;-75
2023/09/07 09:18:10;;;;;;;3.90;1.90;;;22.40;99.90;;;;;;5067754;28;20958;-77
2023/09/07 09:20:39;;;;;;;2.90;1.87;;;22.70;99.90;;;;;;5065108;28;21168;-74
2023/09/07 09:23:08;;;;;;;2.23;2.03;;;22.60;98.10;;;;;;5056125;28;20546;-78
2023/09/07 09:25:35;;;;;;;2.00;1.63;;;22.60;99.00;;;;;;5061615;28;20505;-74
2023/09/07 09:28:02;;;;;;;1.90;1.57;;;22.70;98.20;;;;;;5063614;28;20445;-74
2023/09/07 09:30:29;;;;;;;2.60;1.70;;;22.90;99.10;;;;;;5062390;28;20909;-74
2023/09/07 09:32:56;;;;;;;2.73;2.50;;;22.90;98.60;;;;;;5052471;28;20441;-75
2023/09/07 09:35:24;;;;;;;2.37;2.20;;;23.00;99.70;;;;;;5056547;28;20494;-74
2023/09/07 09:37:51;;;;;;;2.70;2.10;;;23.00;98.20;;;;;;5064576;28;20463;-74
2023/09/07 09:40:20;;;;;;;1.70;1.60;;;23.20;99.10;;;;;;5060823;28;20567;-74
2023/09/07 09:42:47;;;;;;;2.20;1.53;;;23.50;99.40;;;;;;5065462;28;20447;-74
2023/09/07 09:45:14;;;;;;;2.50;1.67;;;23.30;97.20;;;;;;5065778;28;20452;-75
2023/09/07 09:47:42;;;;;;;2.13;1.20;;;23.20;96.20;;;;;;5062920;28;20448;-74
2023/09/07 09:50:11;;;;;;;1.43;1.33;;;23.30;95.50;;;;;;5056759;28;20538;-74
2023/09/07 09:52:39;;;;;;;8.83;1.80;;;23.30;97.60;;;;;;5062771;28;20531;-75
2023/09/07 09:55:07;;;;;;;1.70;1.47;;;23.50;96.70;;;;;;5063593;28;20553;-76
2023/09/07 09:57:37;;;;;;;2.00;1.47;;;23.50;95.60;;;;;;5061404;28;20444;-79
2023/09/07 10:00:19;;;;;;;5.23;2.87;;;23.60;96.20;;;;;;5066219;28;20897;-74
2023/09/07 10:02:50;;;;;;;3.03;1.43;;;23.50;95.10;;;;;;5053219;28;20540;-77
2023/09/07 10:05:19;;;;;;;1.53;1.43;;;23.60;94.80;;;;;;5064123;28;20485;-74
2023/09/07 10:07:49;;;;;;;2.57;1.70;;;23.70;94.40;;;;;;5061761;28;20468;-74
2023/09/07 10:10:16;;;;;;;1.70;1.60;;;23.70;93.70;;;;;;5066924;28;20984;-74
2023/09/07 10:12:52;;;;;;;2.80;1.60;;;23.90;95.10;;;;;;5066364;28;20536;-78
2023/09/07 10:15:24;;;;;;;3.43;1.73;;;24.10;92.60;;;;;;5062935;28;20494;-74
2023/09/07 10:17:52;;;;;;;1.70;1.60;;;24.10;93.90;;;;;;5062134;28;20897;-76
2023/09/07 10:20:23;;;;;;;5.10;1.67;;;24.30;95.10;;;;;;5055452;28;20475;-78
2023/09/07 10:22:51;;;;;;;3.70;1.70;;;24.50;94.00;;;;;;5050174;28;20473;-74
2023/09/07 10:25:22;;;;;;;2.00;1.90;;;24.80;94.90;;;;;;5053326;28;20472;-78
2023/09/07 10:27:50;;;;;;;1.53;1.43;;;24.90;94.60;;;;;;5057287;28;20510;-75
2023/09/07 10:30:19;;;;;;;5.30;2.00;;;25.00;93.20;;;;;;5067346;28;20489;-75
2023/09/07 10:32:47;;;;;;;2.27;2.07;;;25.20;92.70;;;;;;5053221;28;20527;-74
2023/09/07 10:35:15;;;;;;;1.60;1.50;;;25.20;92.80;;;;;;5062882;28;20502;-77
2023/09/07 10:37:44;;;;;;;3.70;1.30;;;25.10;90.90;;;;;;5059534;28;20563;-74
2023/09/07 10:40:13;;;;;;;1.60;1.20;;;25.00;92.10;;;;;;5064961;28;20471;-74
2023/09/07 10:42:40;;;;;;;1.50;1.40;;;25.00;91.30;;;;;;5064476;28;20464;-75
2023/09/07 10:45:16;;;;;;;1.33;1.23;;;25.00;91.80;;;;;;5062207;28;20483;-74
2023/09/07 10:47:45;;;;;;;3.50;1.47;;;25.00;90.90;;;;;;5062004;28;20479;-74
2023/09/07 10:50:13;;;;;;;2.07;1.77;;;25.20;92.70;;;;;;5059723;28;20546;-75
2023/09/07 10:52:42;;;;;;;1.47;1.37;;;25.20;90.00;;;;;;5060054;28;20523;-75
2023/09/07 10:55:12;;;;;;;1.93;1.83;;;25.30;90.80;;;;;;5063046;28;20927;-75
2023/09/07 10:57:45;;;;;;;2.40;1.67;;;25.30;90.50;;;;;;5063885;28;20471;-74
2023/09/07 11:00:16;;;;;;;1.87;1.77;;;25.60;90.70;;;;;;5066871;28;20576;-74
2023/09/07 11:02:43;;;;;;;4.50;1.73;;;25.70;89.70;;;;;;5065630;28;20464;-74
2023/09/07 11:05:10;;;;;;;1.43;1.33;;;25.70;87.10;;;;;;5057782;28;20467;-74
2023/09/07 11:07:38;;;;;;;1.60;1.37;;;25.70;89.60;;;;;;5057259;28;21010;-76
2023/09/07 11:10:07;;;;;;;2.70;1.30;;;25.60;85.20;;;;;;5061209;28;20455;-74
2023/09/07 11:12:38;;;;;;;2.10;1.27;;;25.60;85.80;;;;;;5056844;28;20959;-74
2023/09/07 11:15:09;;;;;;;2.83;1.30;;;25.70;82.90;;;;;;5063642;28;20436;-74
2023/09/07 11:17:39;;;;;;;1.20;1.10;;;25.80;83.80;;;;;;5053743;28;20927;-74
2023/09/07 11:20:08;;;;;;;2.80;1.03;;;25.70;84.80;;;;;;5058683;28;20476;-74
2023/09/07 11:22:38;;;;;;;1.40;1.07;;;25.90;86.40;;;;;;5052904;28;20999;-76
2023/09/07 11:25:06;;;;;;;1.40;1.30;;;26.00;85.80;;;;;;5063050;28;20444;-74
2023/09/07 11:27:33;;;;;;;1.97;1.77;;;26.10;82.40;;;;;;5063987;28;20447;-78
2023/09/07 11:30:03;;;;;;;7.13;1.17;;;26.00;81.00;;;;;;5061264;28;20557;-74
2023/09/07 11:32:35;;;;;;;2.23;1.13;;;26.20;83.90;;;;;;5061765;28;20484;-75
2023/09/07 11:35:07;;;;;;;2.03;1.30;;;26.20;82.30;;;;;;5061805;28;20487;-75
2023/09/07 11:37:34;;;;;;;2.13;1.40;;;26.40;84.80;;;;;;5064602;28;20479;-74
2023/09/07 11:40:04;;;;;;;4.70;1.60;;;26.40;78.80;;;;;;5061546;28;20594;-79
2023/09/07 11:42:31;;;;;;;2.47;1.40;;;26.50;81.10;;;;;;5066107;28;20973;-74
2023/09/07 11:44:58;;;;;;;8.07;2.67;;;26.40;80.70;;;;;;5060760;28;20507;-74
2023/09/07 11:47:25;;;;;;;3.30;2.10;;;26.50;78.60;;;;;;5063251;28;20440;-78
2023/09/07 11:49:53;;;;;;;3.90;1.67;;;26.50;77.50;;;;;;5062723;28;21434;-74
2023/09/07 11:52:21;;;;;;;1.63;1.53;;;26.50;73.20;;;;;;5063072;28;20523;-75
2023/09/07 11:54:48;;;;;;;1.90;1.50;;;26.60;77.10;;;;;;5061810;28;20541;-73
2023/09/07 11:57:15;;;;;;;8.80;1.40;;;26.50;74.60;;;;;;5064151;28;20962;-74
2023/09/07 11:59:42;;;;;;;3.33;1.37;;;26.50;77.60;;;;;;5066268;28;20483;-74
2023/09/07 12:02:11;;;;;;;4.00;1.37;;;26.70;76.50;;;;;;5066075;28;20447;-73
2023/09/07 12:04:38;;;;;;;1.40;1.30;;;26.90;76.00;;;;;;5065398;28;20474;-78
2023/09/07 12:07:05;;;;;;;1.27;1.17;;;26.90;74.70;;;;;;5066023;28;21152;-74
2023/09/07 12:09:33;;;;;;;2.03;1.70;;;27.10;78.70;;;;;;5067709;28;20464;-72
2023/09/07 12:12:00;;;;;;;1.67;1.23;;;27.00;71.80;;;;;;5070351;28;20509;-73
2023/09/07 12:14:27;;;;;;;3.40;1.83;;;26.80;74.10;;;;;;5055451;28;20465;-76
2023/09/07 12:16:54;;;;;;;3.23;1.53;;;26.80;72.90;;;;;;5050488;28;20479;-77
2023/09/07 12:19:21;;;;;;;1.57;1.47;;;26.70;73.90;;;;;;5062802;28;20514;-74
2023/09/07 12:21:48;;;;;;;2.43;1.30;;;26.70;72.50;;;;;;5056560;28;21193;-78
2023/09/07 12:24:15;;;;;;;11.33;1.87;;;26.70;72.80;;;;;;5052056;28;20496;-74
2023/09/07 12:26:43;;;;;;;2.60;1.70;;;26.80;72.40;;;;;;5061523;28;20570;-77
2023/09/07 12:29:10;;;;;;;9.03;1.73;;;26.90;71.30;;;;;;5062125;28;20887;-74
2023/09/07 12:31:37;;;;;;;2.23;1.80;;;27.10;76.50;;;;;;5052178;28;20959;-74
2023/09/07 12:34:04;;;;;;;6.70;1.43;;;27.00;71.50;;;;;;5052315;28;20437;-74
2023/09/07 12:36:31;;;;;;;2.13;1.97;;;27.00;69.30;;;;;;5059264;28;20528;-72
2023/09/07 12:39:01;;;;;;;2.80;1.80;;;26.80;69.40;;;;;;5057571;28;20441;-74
2023/09/07 12:41:28;;;;;;;1.83;1.73;;;26.90;72.90;;;;;;5065093;28;20481;-74
2023/09/07 12:43:56;;;;;;;2.20;2.00;;;26.80;70.10;;;;;;5063223;28;20444;-77
2023/09/07 12:46:23;;;;;;;1.90;1.43;;;26.80;71.90;;;;;;5058239;28;20529;-74
2023/09/07 12:48:50;;;;;;;1.83;1.40;;;26.90;68.80;;;;;;5067329;28;20536;-73
2023/09/07 12:51:17;;;;;;;2.00;1.67;;;27.00;69.80;;;;;;5065029;28;20943;-75